Time;durP1;ratioP1;P1;durP2;ratioP2;P2;SDS_P1;SDS_P2;PMS_P1;PMS_P2;Temp;Humidity;BMP_temperature;BMP_pressure;BME280_temperature;BME280_humidity;BME280_pressure;Samples;Min_cycle;Max_cycle;Signal;HPM_P1;HPM_P2
2022/09/03 00:01:43;;;;;;;0.80;0.80;;;19.50;48.60;;;;;;5074261;28;20069;-26
2022/09/03 00:04:18;;;;;;;0.93;0.60;;;19.40;48.00;;;;;;5074550;28;20028;-28
2022/09/03 00:06:50;;;;;;;0.80;0.80;;;19.40;48.10;;;;;;5074463;28;20123;-27
2022/09/03 00:09:30;;;;;;;1.10;0.90;;;19.40;48.20;;;;;;5074410;28;20098;-27
2022/09/03 00:12:13;;;;;;;1.92;0.80;;;19.40;48.30;;;;;;5074613;28;20468;-28
2022/09/03 00:14:46;;;;;;;1.20;0.80;;;19.30;48.30;;;;;;5074301;28;20020;-27
2022/09/03 00:17:21;;;;;;;0.73;0.57;;;19.30;48.30;;;;;;5074127;28;20535;-28
2022/09/03 00:20:01;;;;;;;2.78;0.73;;;19.30;48.30;;;;;;5073912;28;20391;-28
2022/09/03 00:22:33;;;;;;;0.90;0.80;;;19.20;48.40;;;;;;5074163;28;20025;-28
2022/09/03 00:25:02;;;;;;;0.70;0.70;;;19.20;48.50;;;;;;5074023;28;20024;-28
2022/09/03 00:27:32;;;;;;;3.65;0.90;;;19.20;48.50;;;;;;5073438;28;20132;-37
2022/09/03 00:30:05;;;;;;;0.73;0.63;;;19.20;48.60;;;;;;5074108;28;20048;-28
2022/09/03 00:32:46;;;;;;;1.30;0.70;;;19.20;48.70;;;;;;5073854;28;20024;-29
2022/09/03 00:35:40;;;;;;;1.50;0.65;;;19.20;48.70;;;;;;5073695;28;20046;-27
2022/09/03 00:38:07;;;;;;;3.00;0.70;;;19.20;48.80;;;;;;5073986;28;20499;-31
2022/09/03 00:41:07;;;;;;;1.05;0.70;;;19.10;48.80;;;;;;5073721;28;20414;-30
2022/09/03 00:43:45;;;;;;;0.65;0.63;;;19.10;48.90;;;;;;5073478;28;20020;-27
2022/09/03 00:46:35;;;;;;;2.22;0.60;;;19.10;49.00;;;;;;5073453;28;20431;-27
2022/09/03 00:49:29;;;;;;;1.85;0.90;;;19.00;49.00;;;;;;5073349;28;20020;-27
2022/09/03 00:52:28;;;;;;;0.60;0.60;;;19.00;49.10;;;;;;5072417;28;20044;-28
2022/09/03 00:55:30;;;;;;;0.93;0.60;;;18.90;49.20;;;;;;5072467;28;20032;-30
2022/09/03 00:58:26;;;;;;;0.60;0.60;;;18.90;49.20;;;;;;5073173;28;20021;-28
2022/09/03 01:00:52;;;;;;;1.90;0.57;;;18.90;49.30;;;;;;5072984;28;20033;-28
2022/09/03 01:03:58;;;;;;;2.67;0.73;;;18.90;49.40;;;;;;5073588;28;20020;-28
2022/09/03 01:06:36;;;;;;;0.80;0.60;;;18.90;49.60;;;;;;5061803;28;20033;-29
2022/09/03 01:09:14;;;;;;;0.65;0.52;;;18.80;49.50;;;;;;5073217;28;20133;-28
2022/09/03 01:12:05;;;;;;;3.65;0.90;;;18.80;49.60;;;;;;5072844;28;20029;-31
2022/09/03 01:14:42;;;;;;;1.15;0.68;;;18.80;49.70;;;;;;5073078;28;20077;-28
2022/09/03 01:17:25;;;;;;;1.50;0.77;;;18.80;49.70;;;;;;5072814;28;20025;-28
2022/09/03 01:19:57;;;;;;;1.38;0.82;;;18.70;49.80;;;;;;5072834;28;20177;-27
2022/09/03 01:22:35;;;;;;;1.42;1.00;;;18.70;49.90;;;;;;5073285;28;20020;-30
2022/09/03 01:25:22;;;;;;;0.95;0.80;;;18.70;49.90;;;;;;5072952;28;20353;-28
2022/09/03 01:28:31;;;;;;;3.25;0.68;;;18.70;50.10;;;;;;5072880;28;20159;-32
2022/09/03 01:31:29;;;;;;;1.50;0.90;;;18.70;50.10;;;;;;5072455;28;20021;-27
2022/09/03 01:34:14;;;;;;;2.70;0.80;;;18.60;50.10;;;;;;5072465;28;20040;-28
2022/09/03 01:37:11;;;;;;;1.05;0.75;;;18.60;50.20;;;;;;5072506;28;20476;-28
2022/09/03 01:40:03;;;;;;;0.75;0.60;;;18.50;50.20;;;;;;5072663;28;20028;-28
2022/09/03 01:43:01;;;;;;;4.00;1.13;;;18.50;50.30;;;;;;5072157;28;20143;-28
2022/09/03 01:45:27;;;;;;;0.93;0.80;;;18.50;50.40;;;;;;5072324;28;20467;-27
2022/09/03 01:48:11;;;;;;;2.40;0.88;;;18.40;50.30;;;;;;5072638;28;20423;-29
2022/09/03 01:50:56;;;;;;;1.50;0.85;;;18.40;50.40;;;;;;5072309;28;20024;-28
2022/09/03 01:54:00;;;;;;;1.02;0.73;;;18.40;50.50;;;;;;5072929;28;20468;-27
2022/09/03 01:56:56;;;;;;;0.70;0.70;;;18.40;50.60;;;;;;5072306;28;20025;-28
2022/09/03 01:59:33;;;;;;;1.27;0.52;;;18.40;50.70;;;;;;5072229;28;20020;-28
2022/09/03 02:02:05;;;;;;;2.55;0.73;;;18.30;50.70;;;;;;5072213;28;20032;-29
2022/09/03 02:04:31;;;;;;;1.67;0.85;;;18.30;50.80;;;;;;5072550;28;20028;-28
2022/09/03 02:06:59;;;;;;;1.98;0.90;;;18.30;50.90;;;;;;5072449;28;20369;-27
2022/09/03 02:09:25;;;;;;;0.88;0.70;;;18.30;50.90;;;;;;5072468;28;20044;-28
2022/09/03 02:12:07;;;;;;;1.35;0.90;;;18.20;50.90;;;;;;5072125;28;20033;-27
2022/09/03 02:14:33;;;;;;;3.40;0.77;;;18.20;51.10;;;;;;5072410;28;20484;-32
2022/09/03 02:17:01;;;;;;;1.30;0.80;;;18.10;51.10;;;;;;5072217;28;20074;-27
2022/09/03 02:19:30;;;;;;;2.13;0.82;;;18.10;51.10;;;;;;5072008;28;20060;-28
2022/09/03 02:21:56;;;;;;;0.80;0.80;;;18.10;51.20;;;;;;5072254;28;20021;-29
2022/09/03 02:24:23;;;;;;;1.33;0.80;;;18.10;51.20;;;;;;5072035;28;20020;-29
2022/09/03 02:26:49;;;;;;;1.02;0.73;;;18.10;51.30;;;;;;5071973;28;20042;-28
2022/09/03 02:29:16;;;;;;;1.08;0.70;;;18.10;51.40;;;;;;5072259;28;20021;-29
2022/09/03 02:31:44;;;;;;;0.85;0.60;;;18.10;51.40;;;;;;5071957;28;20391;-27
2022/09/03 02:34:10;;;;;;;2.03;0.77;;;18.00;51.50;;;;;;5072149;28;20134;-27
2022/09/03 02:36:45;;;;;;;1.58;0.77;;;18.00;51.50;;;;;;5071897;28;20098;-28
2022/09/03 02:39:11;;;;;;;0.75;0.65;;;18.00;51.60;;;;;;5072545;28;20017;-27
2022/09/03 02:41:37;;;;;;;1.60;0.80;;;17.90;51.60;;;;;;5071842;28;20025;-28
2022/09/03 02:44:25;;;;;;;0.70;0.70;;;18.00;51.70;;;;;;5071995;28;20106;-31
2022/09/03 02:47:04;;;;;;;0.57;0.52;;;17.90;51.80;;;;;;5071806;28;20032;-28
2022/09/03 02:49:30;;;;;;;0.80;0.70;;;17.90;51.80;;;;;;5071848;28;20074;-28
2022/09/03 02:52:05;;;;;;;1.33;0.80;;;17.80;51.70;;;;;;5070479;28;20020;-33
2022/09/03 02:54:34;;;;;;;1.10;0.63;;;17.80;51.80;;;;;;5072394;28;20020;-28
2022/09/03 02:57:00;;;;;;;0.63;0.60;;;17.80;51.90;;;;;;5074438;28;20024;-28
2022/09/03 02:59:27;;;;;;;2.00;0.70;;;17.80;51.90;;;;;;5075538;28;20052;-31
2022/09/03 03:01:53;;;;;;;1.02;0.60;;;17.80;52.00;;;;;;5075896;28;20078;-27
2022/09/03 03:04:20;;;;;;;3.15;0.70;;;17.70;52.10;;;;;;5075491;28;20032;-27
2022/09/03 03:06:45;;;;;;;1.00;0.65;;;17.70;52.10;;;;;;5075796;28;20020;-28
2022/09/03 03:09:11;;;;;;;1.30;0.77;;;17.70;52.20;;;;;;5075507;28;20032;-28
2022/09/03 03:11:38;;;;;;;3.85;0.82;;;17.60;52.20;;;;;;5075242;28;20445;-29
2022/09/03 03:14:03;;;;;;;1.80;0.80;;;17.60;52.30;;;;;;5075575;28;20448;-28
2022/09/03 03:16:29;;;;;;;1.00;0.70;;;17.60;52.30;;;;;;5075503;28;20100;-27
2022/09/03 03:18:56;;;;;;;0.90;0.80;;;17.60;52.30;;;;;;5073936;28;20025;-28
2022/09/03 03:21:21;;;;;;;1.60;0.80;;;17.60;52.40;;;;;;5075319;28;20032;-30
2022/09/03 03:23:47;;;;;;;1.10;0.70;;;17.60;52.50;;;;;;5075250;28;20490;-30
2022/09/03 03:26:19;;;;;;;1.75;0.80;;;17.50;52.50;;;;;;5075251;28;20361;-28
2022/09/03 03:28:47;;;;;;;1.40;0.70;;;17.50;52.50;;;;;;5074075;28;20039;-30
2022/09/03 03:31:18;;;;;;;0.75;0.65;;;17.50;52.60;;;;;;5075504;28;20032;-28
2022/09/03 03:33:49;;;;;;;1.00;0.75;;;17.40;52.60;;;;;;5075185;28;20025;-28
2022/09/03 03:36:15;;;;;;;1.45;0.77;;;17.40;52.60;;;;;;5073847;28;20432;-27
2022/09/03 03:38:42;;;;;;;1.45;0.70;;;17.50;52.70;;;;;;5074827;28;20070;-30
2022/09/03 03:41:11;;;;;;;1.35;0.82;;;17.40;52.70;;;;;;5074758;28;20035;-27
2022/09/03 03:43:37;;;;;;;0.95;0.73;;;17.50;52.70;;;;;;5074804;28;20025;-30
2022/09/03 03:46:03;;;;;;;0.82;0.70;;;17.40;53.40;;;;;;5074420;28;20047;-32
2022/09/03 03:48:30;;;;;;;1.15;0.80;;;17.40;52.80;;;;;;5073225;28;20059;-28
2022/09/03 03:51:01;;;;;;;2.55;0.75;;;17.40;52.80;;;;;;5074623;28;20017;-28
2022/09/03 03:53:26;;;;;;;0.68;0.60;;;17.30;52.80;;;;;;5074364;28;20021;-30
2022/09/03 03:55:57;;;;;;;1.95;0.68;;;17.40;52.90;;;;;;5074425;28;20028;-29
2022/09/03 03:58:23;;;;;;;1.23;0.75;;;17.30;52.90;;;;;;5074643;28;20036;-30
2022/09/03 04:00:50;;;;;;;1.48;0.75;;;17.30;53.00;;;;;;5074376;28;20477;-28
2022/09/03 04:03:16;;;;;;;0.90;0.57;;;17.30;53.10;;;;;;5074369;28;20054;-28
2022/09/03 04:05:42;;;;;;;1.83;0.70;;;17.30;53.10;;;;;;5073835;28;20097;-27
2022/09/03 04:08:07;;;;;;;1.27;0.70;;;17.30;53.10;;;;;;5074828;28;20083;-29
2022/09/03 04:10:33;;;;;;;0.65;0.52;;;17.20;53.10;;;;;;5074439;28;20031;-28
2022/09/03 04:12:59;;;;;;;0.95;0.70;;;17.20;53.10;;;;;;5075286;28;20020;-27
2022/09/03 04:15:25;;;;;;;1.25;0.68;;;17.20;53.20;;;;;;5074386;28;20101;-27
2022/09/03 04:17:54;;;;;;;2.20;0.70;;;17.20;53.20;;;;;;5074280;28;20021;-28
2022/09/03 04:20:20;;;;;;;3.22;0.57;;;17.20;53.30;;;;;;5074395;28;20479;-27
2022/09/03 04:22:46;;;;;;;1.00;0.80;;;17.20;53.40;;;;;;5074465;28;20020;-27
2022/09/03 04:25:12;;;;;;;1.08;0.70;;;17.10;53.40;;;;;;5073948;28;20066;-28
2022/09/03 04:27:37;;;;;;;1.20;0.77;;;17.10;53.40;;;;;;5074165;28;20021;-29
2022/09/03 04:30:04;;;;;;;1.75;0.80;;;17.10;53.40;;;;;;5074090;28;20028;-33
2022/09/03 04:35:14;;;;;;;1.45;0.82;;;17.10;53.50;;;;;;5074218;28;20111;-30
2022/09/03 04:37:40;;;;;;;0.93;0.65;;;17.10;53.50;;;;;;5074629;28;20060;-29
2022/09/03 04:40:06;;;;;;;1.60;0.80;;;17.00;53.50;;;;;;5074151;28;20442;-27
2022/09/03 04:42:32;;;;;;;0.68;0.60;;;17.00;53.60;;;;;;5073932;28;20020;-28
2022/09/03 04:44:58;;;;;;;2.00;0.70;;;17.00;53.70;;;;;;5073816;28;20100;-28
2022/09/03 04:47:23;;;;;;;2.05;0.60;;;17.00;53.70;;;;;;5073262;28;20040;-28
2022/09/03 04:49:49;;;;;;;1.33;0.70;;;16.90;53.70;;;;;;5074184;28;20098;-31
2022/09/03 04:52:15;;;;;;;0.85;0.70;;;16.90;53.80;;;;;;5073990;28;20047;-30
2022/09/03 04:54:40;;;;;;;0.98;0.60;;;16.90;53.80;;;;;;5073450;28;20016;-28
2022/09/03 04:57:06;;;;;;;0.77;0.60;;;16.90;53.80;;;;;;5073427;28;20028;-29
2022/09/03 04:59:31;;;;;;;2.00;0.70;;;16.90;53.80;;;;;;5073236;28;20024;-31
2022/09/03 05:01:57;;;;;;;1.25;0.65;;;16.90;53.80;;;;;;5073459;28;20036;-29
2022/09/03 05:04:22;;;;;;;1.00;0.70;;;16.90;53.90;;;;;;5073478;28;20469;-29
2022/09/03 05:06:48;;;;;;;0.80;0.68;;;16.90;53.90;;;;;;5073547;28;20023;-30
2022/09/03 05:09:14;;;;;;;1.10;0.65;;;16.90;53.90;;;;;;5073509;28;20024;-28
2022/09/03 05:11:39;;;;;;;0.50;0.50;;;16.90;54.00;;;;;;5072931;28;20027;-28
2022/09/03 05:14:05;;;;;;;1.27;0.70;;;16.90;54.00;;;;;;5072918;28;20369;-33
2022/09/03 05:16:31;;;;;;;2.25;0.63;;;16.90;54.00;;;;;;5073109;28;20025;-27
2022/09/03 05:18:58;;;;;;;1.25;0.60;;;16.90;54.10;;;;;;5072084;28;20079;-27
2022/09/03 05:21:24;;;;;;;2.10;0.60;;;16.80;54.00;;;;;;5072722;28;20016;-28
2022/09/03 05:23:51;;;;;;;2.35;0.80;;;16.80;54.00;;;;;;5072839;28;20054;-29
2022/09/03 05:26:29;;;;;;;2.10;0.65;;;16.80;54.00;;;;;;5073173;28;20020;-28
2022/09/03 05:28:58;;;;;;;0.60;0.40;;;16.90;54.10;;;;;;5073006;28;20023;-27
2022/09/03 05:31:26;;;;;;;0.80;0.57;;;16.90;54.10;;;;;;5072769;28;20048;-28
2022/09/03 05:33:58;;;;;;;0.82;0.60;;;16.90;54.00;;;;;;5071396;28;20039;-29
2022/09/03 05:36:26;;;;;;;0.68;0.60;;;16.90;54.10;;;;;;5072951;28;20425;-28
2022/09/03 05:38:54;;;;;;;2.83;0.70;;;16.90;54.10;;;;;;5072564;28;20507;-28
2022/09/03 05:41:21;;;;;;;0.98;0.70;;;16.90;54.10;;;;;;5072716;28;20037;-28
2022/09/03 05:43:54;;;;;;;0.98;0.65;;;16.90;54.10;;;;;;5072535;28;20025;-30
2022/09/03 05:46:20;;;;;;;0.93;0.57;;;16.90;54.10;;;;;;5071079;28;20037;-28
2022/09/03 05:48:46;;;;;;;1.27;0.85;;;16.90;54.10;;;;;;5072431;28;20267;-28
2022/09/03 05:51:16;;;;;;;1.23;0.70;;;17.00;54.10;;;;;;5072580;28;20044;-31
2022/09/03 05:53:45;;;;;;;1.85;1.08;;;17.00;54.10;;;;;;5072418;28;20021;-30
2022/09/03 05:56:22;;;;;;;1.40;0.68;;;17.00;54.10;;;;;;5071479;28;20103;-30
2022/09/03 05:58:50;;;;;;;1.60;0.70;;;17.00;54.10;;;;;;5072404;28;20020;-27
2022/09/03 06:01:22;;;;;;;1.02;0.73;;;17.00;54.00;;;;;;5072410;28;20033;-27
2022/09/03 06:03:57;;;;;;;0.80;0.80;;;17.00;54.10;;;;;;5072528;28;20108;-28
2022/09/03 06:06:26;;;;;;;1.02;0.50;;;17.10;54.10;;;;;;5072503;28;20464;-28
2022/09/03 06:08:56;;;;;;;0.50;0.50;;;17.10;54.10;;;;;;5072481;28;20020;-28
2022/09/03 06:11:25;;;;;;;1.77;0.80;;;17.10;54.10;;;;;;5072215;28;20108;-28
2022/09/03 06:13:51;;;;;;;0.77;0.60;;;17.10;54.00;;;;;;5072234;28;20013;-28
2022/09/03 06:16:16;;;;;;;1.02;0.82;;;17.10;54.10;;;;;;5072622;28;20033;-29
2022/09/03 06:18:42;;;;;;;0.93;0.60;;;17.20;54.10;;;;;;5070906;28;20428;-30
2022/09/03 06:21:08;;;;;;;0.75;0.70;;;17.20;54.00;;;;;;5072624;28;20032;-29
2022/09/03 06:23:34;;;;;;;3.65;0.68;;;17.30;54.10;;;;;;5070884;28;20020;-32
2022/09/03 06:26:08;;;;;;;1.60;0.70;;;17.30;54.10;;;;;;5072214;28;20028;-27
2022/09/03 06:28:36;;;;;;;2.42;0.80;;;17.30;54.70;;;;;;5072603;28;20020;-29
2022/09/03 06:31:05;;;;;;;1.60;0.70;;;17.30;54.00;;;;;;5076673;28;20398;-30
2022/09/03 06:33:32;;;;;;;1.00;0.70;;;17.30;54.00;;;;;;5076467;28;20036;-29
2022/09/03 06:35:59;;;;;;;4.15;0.80;;;17.40;54.10;;;;;;5076209;28;20020;-28
2022/09/03 06:38:27;;;;;;;0.88;0.60;;;17.40;54.00;;;;;;5074745;28;20039;-28
2022/09/03 06:41:00;;;;;;;0.68;0.68;;;17.40;53.90;;;;;;5076291;28;20016;-28
2022/09/03 06:43:27;;;;;;;0.57;0.57;;;17.50;53.90;;;;;;5076460;28;20054;-27
2022/09/03 06:45:57;;;;;;;0.88;0.70;;;17.50;53.90;;;;;;5075761;28;20132;-28
2022/09/03 06:48:24;;;;;;;2.35;0.82;;;17.50;53.90;;;;;;5075835;28;20095;-27
2022/09/03 06:51:00;;;;;;;0.52;0.52;;;17.50;53.90;;;;;;5075940;28;20016;-29
2022/09/03 06:53:33;;;;;;;0.65;0.60;;;17.60;53.90;;;;;;5075682;28;20490;-30
2022/09/03 06:56:03;;;;;;;1.83;0.80;;;17.70;53.80;;;;;;5075709;28;20029;-29
2022/09/03 06:58:31;;;;;;;1.27;1.00;;;17.70;53.80;;;;;;5075585;28;20020;-28
2022/09/03 07:01:02;;;;;;;0.95;0.68;;;17.70;53.70;;;;;;5076201;28;20070;-28
2022/09/03 07:03:28;;;;;;;0.95;0.70;;;17.80;53.80;;;;;;5074692;28;20059;-29
2022/09/03 07:06:00;;;;;;;2.08;0.75;;;17.80;53.80;;;;;;5075565;28;20052;-28
2022/09/03 07:08:25;;;;;;;1.83;0.70;;;17.90;53.90;;;;;;5075691;28;20448;-28
2022/09/03 07:10:51;;;;;;;3.25;0.73;;;17.90;53.80;;;;;;5075504;28;20028;-28
2022/09/03 07:13:17;;;;;;;0.85;0.80;;;18.00;53.80;;;;;;5075744;28;20028;-25
2022/09/03 07:15:43;;;;;;;2.97;0.65;;;18.00;53.80;;;;;;5075795;28;20023;-28
2022/09/03 07:18:09;;;;;;;0.70;0.70;;;18.00;53.80;;;;;;5075502;28;20024;-28
2022/09/03 07:20:35;;;;;;;2.15;0.80;;;18.10;53.80;;;;;;5075346;28;20029;-28
2022/09/03 07:23:00;;;;;;;0.85;0.65;;;18.20;53.70;;;;;;5074023;28;20476;-28
2022/09/03 07:25:26;;;;;;;1.75;0.85;;;18.20;53.70;;;;;;5075484;28;20094;-29
2022/09/03 07:27:52;;;;;;;0.70;0.70;;;18.20;53.60;;;;;;5075491;28;20025;-28
2022/09/03 07:30:21;;;;;;;2.30;0.80;;;18.30;53.70;;;;;;5075240;28;20153;-29
2022/09/03 07:32:48;;;;;;;1.05;0.88;;;18.30;53.60;;;;;;5073944;28;20075;-28
2022/09/03 07:35:13;;;;;;;1.45;0.70;;;18.40;53.60;;;;;;5075904;28;20472;-28
2022/09/03 07:37:42;;;;;;;0.80;0.60;;;18.50;53.60;;;;;;5075314;28;20104;-27
2022/09/03 07:40:12;;;;;;;0.60;0.60;;;18.50;53.60;;;;;;5074016;28;20033;-28
2022/09/03 07:42:39;;;;;;;1.35;0.80;;;18.60;53.50;;;;;;5075049;28;20052;-28
2022/09/03 07:45:11;;;;;;;1.23;0.88;;;18.70;53.50;;;;;;5075032;28;20021;-30
2022/09/03 07:47:36;;;;;;;0.90;0.60;;;18.70;53.40;;;;;;5074717;28;20381;-28
2022/09/03 07:50:03;;;;;;;1.23;0.80;;;18.80;53.40;;;;;;5074800;28;20066;-28
2022/09/03 07:52:29;;;;;;;2.10;0.90;;;18.90;53.40;;;;;;5074877;28;20044;-27
2022/09/03 07:54:55;;;;;;;2.05;0.90;;;18.90;53.30;;;;;;5074587;28;20428;-27
2022/09/03 07:57:21;;;;;;;1.05;0.80;;;19.00;53.30;;;;;;5074497;28;20028;-28
2022/09/03 07:59:47;;;;;;;0.80;0.73;;;19.10;53.20;;;;;;5074460;28;20025;-33
2022/09/03 08:02:12;;;;;;;2.15;0.73;;;19.20;53.10;;;;;;5074821;28;20037;-29
2022/09/03 08:04:39;;;;;;;0.85;0.55;;;19.20;53.00;;;;;;5074425;28;20019;-27
2022/09/03 08:07:05;;;;;;;2.88;0.77;;;19.30;53.50;;;;;;5074704;28;20035;-30
2022/09/03 08:09:31;;;;;;;1.33;0.80;;;19.30;52.80;;;;;;5074374;28;20380;-30
2022/09/03 08:11:57;;;;;;;1.58;0.90;;;19.40;52.70;;;;;;5074543;28;20024;-28
2022/09/03 08:14:23;;;;;;;2.97;0.70;;;19.50;52.50;;;;;;5074537;28;20472;-29
2022/09/03 08:16:48;;;;;;;1.52;0.70;;;19.60;52.50;;;;;;5074421;28;20329;-28
2022/09/03 08:19:18;;;;;;;2.05;0.60;;;19.70;52.40;;;;;;5074117;28;20028;-28
2022/09/03 08:21:44;;;;;;;2.78;0.80;;;19.70;52.90;;;;;;5074230;28;20024;-28
2022/09/03 08:24:11;;;;;;;1.30;0.80;;;19.80;52.20;;;;;;5074488;28;20373;-28
2022/09/03 08:26:40;;;;;;;1.42;0.93;;;19.90;52.10;;;;;;5074293;28;20021;-27
2022/09/03 08:29:06;;;;;;;1.15;0.80;;;19.90;52.00;;;;;;5074321;28;20039;-27
2022/09/03 08:31:32;;;;;;;1.30;0.80;;;20.00;51.80;;;;;;5074014;28;20021;-28
2022/09/03 08:34:05;;;;;;;1.58;0.70;;;20.10;51.80;;;;;;5074041;28;20021;-27
2022/09/03 08:36:32;;;;;;;1.57;0.80;;;20.20;51.50;;;;;;5074200;28;20541;-29
2022/09/03 08:39:03;;;;;;;0.98;0.73;;;20.30;51.40;;;;;;5073989;28;20051;-28
2022/09/03 08:42:01;;;;;;;0.80;0.60;;;20.40;51.20;;;;;;5073452;28;20131;-28
2022/09/03 08:44:48;;;;;;;2.35;0.70;;;20.50;51.20;;;;;;5072087;28;20094;-28
2022/09/03 08:48:02;;;;;;;1.05;0.80;;;20.60;51.00;;;;;;5073277;28;20440;-27
2022/09/03 08:50:31;;;;;;;0.93;0.70;;;20.70;50.80;;;;;;5073697;28;20426;-28
2022/09/03 08:52:59;;;;;;;1.10;0.75;;;20.80;50.60;;;;;;5073504;28;20353;-28
2022/09/03 08:55:52;;;;;;;0.60;0.50;;;20.90;50.50;;;;;;5074233;28;20033;-28
2022/09/03 08:58:21;;;;;;;1.45;0.63;;;21.00;50.40;;;;;;5073981;28;20025;-27
2022/09/03 09:01:02;;;;;;;0.70;0.70;;;21.10;50.30;;;;;;5073452;28;20016;-27
2022/09/03 09:04:12;;;;;;;0.77;0.70;;;21.10;50.00;;;;;;5073279;28;20055;-27
2022/09/03 09:06:59;;;;;;;1.48;0.77;;;21.30;49.80;;;;;;5072045;28;20040;-25
2022/09/03 09:09:30;;;;;;;0.90;0.70;;;21.30;49.60;;;;;;5071788;28;20368;-27
2022/09/03 09:12:16;;;;;;;4.05;0.80;;;21.40;49.50;;;;;;5073309;28;20032;-27
2022/09/03 09:15:18;;;;;;;3.38;0.80;;;21.50;49.40;;;;;;5072812;28;20036;-43
2022/09/03 09:18:09;;;;;;;2.70;1.05;;;21.60;49.30;;;;;;5073337;28;20016;-41
2022/09/03 09:20:51;;;;;;;1.17;0.90;;;21.70;49.10;;;;;;5073238;28;20025;-41
2022/09/03 09:23:31;;;;;;;1.15;0.68;;;21.80;48.90;;;;;;5072896;28;20039;-41
2022/09/03 09:26:00;;;;;;;0.80;0.80;;;21.90;48.70;;;;;;5073246;28;20020;-41
2022/09/03 09:28:34;;;;;;;1.15;0.75;;;22.00;48.70;;;;;;5073297;28;20479;-42
2022/09/03 09:31:01;;;;;;;0.80;0.70;;;22.00;48.50;;;;;;5073686;28;20028;-43
2022/09/03 09:33:30;;;;;;;2.78;0.80;;;22.10;48.40;;;;;;5073352;28;20438;-40
2022/09/03 09:35:55;;;;;;;3.40;0.70;;;22.20;48.20;;;;;;5073080;28;20021;-39
2022/09/03 09:38:35;;;;;;;1.10;0.80;;;22.30;48.20;;;;;;5072747;28;20118;-43
2022/09/03 09:41:11;;;;;;;0.93;0.70;;;22.30;48.00;;;;;;5072759;28;20533;-40
2022/09/03 09:43:38;;;;;;;1.02;0.73;;;22.40;47.90;;;;;;5073166;28;20409;-43
2022/09/03 09:46:25;;;;;;;1.60;0.70;;;22.50;47.70;;;;;;5072739;28;20041;-44
2022/09/03 09:48:54;;;;;;;1.33;0.70;;;22.60;47.60;;;;;;5072775;28;20043;-43
2022/09/03 09:51:22;;;;;;;1.83;0.73;;;22.70;47.50;;;;;;5071527;28;20529;-43
2022/09/03 09:54:03;;;;;;;1.33;0.73;;;22.80;47.40;;;;;;5073111;28;20016;-43
2022/09/03 09:56:29;;;;;;;1.02;0.50;;;22.80;47.20;;;;;;5072698;28;20092;-44
2022/09/03 09:59:06;;;;;;;2.58;0.80;;;22.90;47.20;;;;;;5072699;28;20025;-40
2022/09/03 10:01:33;;;;;;;1.15;1.00;;;23.00;47.00;;;;;;5072728;28;20073;-39
2022/09/03 10:04:08;;;;;;;1.50;0.52;;;23.10;46.90;;;;;;5072362;28;20017;-43
2022/09/03 10:06:52;;;;;;;1.13;0.70;;;23.20;46.70;;;;;;5072547;28;20017;-41
2022/09/03 10:09:23;;;;;;;1.02;0.70;;;23.20;46.60;;;;;;5072431;28;20104;-41
2022/09/03 10:11:52;;;;;;;1.25;0.70;;;23.30;46.40;;;;;;5072843;28;20028;-42
2022/09/03 10:14:36;;;;;;;1.27;0.55;;;23.40;46.30;;;;;;5072283;28;20101;-42
2022/09/03 10:17:20;;;;;;;2.33;0.80;;;23.50;46.10;;;;;;5072359;28;20036;-42
2022/09/03 10:20:26;;;;;;;1.08;0.60;;;23.50;46.10;;;;;;5072577;28;20094;-43
2022/09/03 10:22:55;;;;;;;1.70;0.80;;;23.60;46.00;;;;;;5072353;28;20016;-39
2022/09/03 10:25:23;;;;;;;0.80;0.80;;;23.70;45.80;;;;;;5072496;28;20020;-43
2022/09/03 10:27:52;;;;;;;2.75;0.80;;;23.80;45.70;;;;;;5072479;28;20399;-42
2022/09/03 10:30:19;;;;;;;2.15;0.70;;;23.90;45.60;;;;;;5072425;28;20043;-42
2022/09/03 10:32:50;;;;;;;0.90;0.73;;;23.90;45.50;;;;;;5072282;28;20112;-41
2022/09/03 10:35:29;;;;;;;1.75;0.73;;;24.00;45.30;;;;;;5072130;28;20063;-40
2022/09/03 10:38:14;;;;;;;2.78;0.88;;;24.10;45.30;;;;;;5071921;28;20024;-41
2022/09/03 10:40:41;;;;;;;0.63;0.60;;;24.10;45.00;;;;;;5072483;28;20060;-41
2022/09/03 10:43:32;;;;;;;0.68;0.68;;;24.20;44.90;;;;;;5072158;28;20432;-41
2022/09/03 10:46:08;;;;;;;0.95;0.70;;;24.20;44.80;;;;;;5071816;28;20371;-35
2022/09/03 10:49:09;;;;;;;2.17;0.70;;;24.30;44.80;;;;;;5072324;28;20100;-36
2022/09/03 10:51:49;;;;;;;0.82;0.60;;;24.40;44.60;;;;;;5068961;28;20036;-35
2022/09/03 10:54:45;;;;;;;2.47;0.77;;;24.50;44.60;;;;;;5072505;28;20375;-27
2022/09/03 10:57:34;;;;;;;1.10;1.00;;;24.60;44.40;;;;;;5071683;28;20124;-26
2022/09/03 11:00:08;;;;;;;2.47;0.80;;;24.60;44.30;;;;;;5071890;28;20028;-25
2022/09/03 11:02:58;;;;;;;1.23;0.73;;;24.60;44.20;;;;;;5072110;28;20096;-25
2022/09/03 11:06:06;;;;;;;1.27;0.70;;;24.70;44.10;;;;;;5072293;28;20052;-26
2022/09/03 11:08:41;;;;;;;1.85;0.80;;;24.80;44.00;;;;;;5071456;28;20033;-26
2022/09/03 11:11:27;;;;;;;2.30;0.73;;;24.80;43.90;;;;;;5072254;28;20535;-26
2022/09/03 11:14:02;;;;;;;1.23;0.80;;;24.90;43.70;;;;;;5071764;28;20160;-29
2022/09/03 11:16:32;;;;;;;3.40;0.90;;;24.90;43.60;;;;;;5073448;28;20025;-27
2022/09/03 11:19:10;;;;;;;1.25;0.70;;;24.90;43.70;;;;;;5075242;28;20059;-27
2022/09/03 11:21:40;;;;;;;0.73;0.60;;;25.00;43.50;;;;;;5075445;28;20033;-31
2022/09/03 11:24:15;;;;;;;2.28;0.60;;;25.10;43.50;;;;;;5073840;28;20021;-40
2022/09/03 11:26:44;;;;;;;0.57;0.57;;;25.20;43.30;;;;;;5075174;28;20020;-37
2022/09/03 11:29:36;;;;;;;2.55;0.80;;;25.30;43.20;;;;;;5074967;28;20028;-38
2022/09/03 11:32:07;;;;;;;2.25;0.70;;;25.30;43.10;;;;;;5075143;28;20024;-43
2022/09/03 11:34:45;;;;;;;0.50;0.50;;;25.40;43.00;;;;;;5073552;28;20020;-42
2022/09/03 11:37:17;;;;;;;0.70;0.63;;;25.50;42.80;;;;;;5075012;28;20025;-42
2022/09/03 11:39:44;;;;;;;1.15;0.70;;;25.60;42.80;;;;;;5075088;28;20488;-40
2022/09/03 11:42:19;;;;;;;0.68;0.60;;;25.60;42.70;;;;;;5075049;28;20031;-41
2022/09/03 11:44:50;;;;;;;1.13;0.70;;;25.70;42.60;;;;;;5073167;28;20115;-41
2022/09/03 11:47:21;;;;;;;3.63;0.80;;;25.70;42.50;;;;;;5074306;28;20145;-40
2022/09/03 11:50:03;;;;;;;2.15;0.70;;;25.80;42.40;;;;;;5075154;28;20230;-43
2022/09/03 11:52:31;;;;;;;3.33;1.20;;;25.90;42.40;;;;;;5074560;28;20028;-39
2022/09/03 11:54:57;;;;;;;2.03;0.80;;;25.90;42.30;;;;;;5074743;28;20024;-41
2022/09/03 11:57:31;;;;;;;2.85;0.50;;;26.00;42.20;;;;;;5074306;28;20017;-43
2022/09/03 12:00:13;;;;;;;1.05;0.55;;;26.00;42.20;;;;;;5075181;28;20365;-41
2022/09/03 12:02:48;;;;;;;1.20;0.80;;;26.10;42.20;;;;;;5074417;28;20025;-42
2022/09/03 12:05:19;;;;;;;1.73;0.70;;;26.10;42.10;;;;;;5074381;28;20070;-41
2022/09/03 12:07:58;;;;;;;0.70;0.70;;;26.20;42.00;;;;;;5074595;28;20391;-39
2022/09/03 12:10:35;;;;;;;1.85;0.60;;;26.20;41.90;;;;;;5074575;28;20130;-44
2022/09/03 12:13:54;;;;;;;2.85;0.80;;;26.30;41.80;;;;;;5074762;28;20030;-41
2022/09/03 12:16:53;;;;;;;0.70;0.63;;;26.40;42.00;;;;;;5072453;28;20071;-42
2022/09/03 12:19:38;;;;;;;0.90;0.70;;;26.40;41.80;;;;;;5073192;28;20033;-41
2022/09/03 12:22:04;;;;;;;1.85;0.80;;;26.50;41.70;;;;;;5073992;28;20031;-41
2022/09/03 12:24:34;;;;;;;0.55;0.40;;;26.60;41.70;;;;;;5074569;28;20020;-42
2022/09/03 12:27:01;;;;;;;1.15;0.65;;;26.70;41.60;;;;;;5073521;28;20059;-42
2022/09/03 12:29:29;;;;;;;0.93;0.70;;;26.70;41.50;;;;;;5073798;28;20028;-27
2022/09/03 12:32:03;;;;;;;2.40;0.70;;;26.70;41.50;;;;;;5073937;28;20421;-43
2022/09/03 12:34:31;;;;;;;2.25;0.90;;;26.80;41.50;;;;;;5073607;28;20025;-40
2022/09/03 12:36:56;;;;;;;1.13;0.80;;;26.90;41.40;;;;;;5073809;28;20032;-41
2022/09/03 12:39:27;;;;;;;1.30;0.70;;;26.90;41.20;;;;;;5074018;28;20021;-42
2022/09/03 12:42:00;;;;;;;1.55;0.88;;;26.90;41.00;;;;;;5073666;28;20081;-44
2022/09/03 12:44:52;;;;;;;1.92;0.80;;;27.00;41.00;;;;;;5073669;28;20415;-46
2022/09/03 12:47:20;;;;;;;1.55;0.70;;;27.10;41.00;;;;;;5072889;28;20044;-28
2022/09/03 12:49:48;;;;;;;1.73;0.82;;;27.30;41.10;;;;;;5073578;28;20024;-26
2022/09/03 12:52:28;;;;;;;1.58;0.55;;;27.30;40.90;;;;;;5072040;28;20085;-26
2022/09/03 12:55:00;;;;;;;0.77;0.60;;;27.50;40.90;;;;;;5073538;28;20051;-27
2022/09/03 12:57:43;;;;;;;1.57;0.80;;;27.60;40.70;;;;;;5073307;28;20058;-30
2022/09/03 13:00:12;;;;;;;;;;;27.70;40.70;;;;;;5073604;28;20380;-27
2022/09/03 13:02:51;;;;;;;1.30;0.70;;;27.80;40.80;;;;;;5073109;28;19904;-44
2022/09/03 13:05:21;;;;;;;1.00;0.85;;;27.90;40.60;;;;;;5073308;28;20103;-43
2022/09/03 13:07:51;;;;;;;1.90;0.85;;;27.90;40.50;;;;;;5073187;28;20124;-44
2022/09/03 13:10:33;;;;;;;0.95;0.77;;;28.00;40.30;;;;;;5073612;28;20025;-44
2022/09/03 13:13:01;;;;;;;1.73;0.80;;;28.10;40.30;;;;;;5071918;28;20024;-44
2022/09/03 13:15:28;;;;;;;0.75;0.75;;;28.20;40.40;;;;;;5073120;28;20027;-44
2022/09/03 13:18:05;;;;;;;1.45;0.90;;;28.30;40.30;;;;;;5073255;28;20107;-44
2022/09/03 13:20:43;;;;;;;1.10;0.90;;;28.40;40.10;;;;;;5072717;28;20029;-44
2022/09/03 13:23:26;;;;;;;1.95;0.73;;;28.50;40.20;;;;;;5072803;28;20025;-44